^^
Meteo Knjazevac Station Historical Data
Daily Summary for March 31, 2021 Units:  Both    English   Metric
Daily Weekly Monthly Yearly Custom
  High: Low: Average:
Temperature: 98.1 °F /  36.7 °C 65.8 °F /  18.8 °C 81.4 °F /  27.4 °C
Dew Point: 75.5 °F /  24.2 °C 61.9 °F /  16.6 °C 67.9 °F /  19.9 °C
Humidity: 93% 37% 67%
Wind Speed: 14mph /  22.5km/h - 2.6mph /  4.2km/h
Wind Gust: 26mph /  41.8km/h - -
Wind- - WSW
Pressure: 30.04 in /  1017.2 hPa 29.87 in /  1011.4 hPa -
Precipitation: 0.06 in /  1.52 mm    
Historical Graphs
 
 
Tabular Data for March 31, 2021
Time Temperature Dew Point Pressure Wind Wind Speed Wind Gust Humidity Rainfall Rate (Hourly) solar Conditions
00:00 73 °F /  22.8 °C 66.1 °F /  18.9 °C 29.93in /  1013.4hPa Calm   2mph /  3.2km/h 79% 0.00in /  0mm 0 W/m2
00:10 72.7 °F /  22.6 °C 66.2 °F /  19 °C 29.93in /  1013.4hPa Calm   1mph /  1.6km/h 80% 0.00in /  0mm 0 W/m2
00:20 72.5 °F /  22.5 °C 66.3 °F /  19.1 °C 29.93in /  1013.4hPa SE 1mph /  1.6km/h 2mph /  3.2km/h 81% 0.00in /  0mm 0 W/m2
00:30 72.3 °F /  22.4 °C 66.2 °F /  19 °C 29.93in /  1013.4hPa Calm     81% 0.00in /  0mm 0 W/m2
00:40 72.1 °F /  22.3 °C 66 °F /  18.9 °C 29.93in /  1013.4hPa Calm     81% 0.00in /  0mm 0 W/m2
00:50 72 °F /  22.2 °C 66.5 °F /  19.2 °C 29.93in /  1013.4hPa Calm   3mph /  4.8km/h 83% 0.00in /  0mm 0 W/m2
01:00 71.6 °F /  22 °C 66.2 °F /  19 °C 29.93in /  1013.4hPa Calm   2mph /  3.2km/h 83% 0.00in /  0mm 0 W/m2
01:10 71.6 °F /  22 °C 66.2 °F /  19 °C 29.93in /  1013.4hPa North 1mph /  1.6km/h 2mph /  3.2km/h 83% 0.00in /  0mm 0 W/m2
01:20 71.4 °F /  21.9 °C 66 °F /  18.9 °C 29.93in /  1013.4hPa Calm   2mph /  3.2km/h 83% 0.00in /  0mm 0 W/m2
01:30 71.2 °F /  21.8 °C 66.2 °F /  19 °C 29.93in /  1013.4hPa NW 1mph /  1.6km/h 3mph /  4.8km/h 84% 0.00in /  0mm 0 W/m2
01:40 70.9 °F /  21.6 °C 65.8 °F /  18.8 °C 29.93in /  1013.4hPa WNW 1mph /  1.6km/h 2mph /  3.2km/h 84% 0.00in /  0mm 0 W/m2
01:50 70.2 °F /  21.2 °C 65.4 °F /  18.6 °C 29.93in /  1013.4hPa West 1mph /  1.6km/h 2mph /  3.2km/h 85% 0.00in /  0mm 0 W/m2
02:00 69.6 °F /  20.9 °C 64.9 °F /  18.3 °C 29.93in /  1013.4hPa WSW 3mph /  4.8km/h 4mph /  6.4km/h 85% 0.00in /  0mm 0 W/m2
02:10 69.3 °F /  20.7 °C 64.9 °F /  18.3 °C 29.93in /  1013.4hPa WNW 2mph /  3.2km/h 4mph /  6.4km/h 86% 0.00in /  0mm 0 W/m2
02:20 69.3 °F /  20.7 °C 64.9 °F /  18.3 °C 29.94in /  1013.8hPa West 2mph /  3.2km/h 5mph /  8km/h 86% 0.00in /  0mm 0 W/m2
02:30 69.3 °F /  20.7 °C 64.9 °F /  18.3 °C 29.94in /  1013.8hPa Calm   3mph /  4.8km/h 86% 0.00in /  0mm 0 W/m2
02:40 69.3 °F /  20.7 °C 64.9 °F /  18.3 °C 29.94in /  1013.8hPa Calm   1mph /  1.6km/h 86% 0.00in /  0mm 0 W/m2
02:50 69.1 °F /  20.6 °C 64.7 °F /  18.2 °C 29.94in /  1013.8hPa NW 1mph /  1.6km/h 2mph /  3.2km/h 86% 0.00in /  0mm 0 W/m2
03:00 68.7 °F /  20.4 °C 65 °F /  18.3 °C 29.94in /  1013.8hPa West 2mph /  3.2km/h 3mph /  4.8km/h 88% 0.00in /  0mm 0 W/m2
03:10 68.4 °F /  20.2 °C 64.7 °F /  18.2 °C 29.94in /  1013.8hPa West 2mph /  3.2km/h 4mph /  6.4km/h 88% 0.00in /  0mm 0 W/m2
03:20 68.4 °F /  20.2 °C 64.7 °F /  18.2 °C 29.94in /  1013.8hPa West 1mph /  1.6km/h 3mph /  4.8km/h 88% 0.00in /  0mm 0 W/m2
03:30 68.2 °F /  20.1 °C 64.5 °F /  18.1 °C 29.94in /  1013.8hPa Calm   3mph /  4.8km/h 88% 0.00in /  0mm 0 W/m2
03:40 67.8 °F /  19.9 °C 64.5 °F /  18.1 °C 29.94in /  1013.8hPa ESE 1mph /  1.6km/h 2mph /  3.2km/h 89% 0.00in /  0mm 0 W/m2
03:50 67.9 °F /  19.9 °C 64.6 °F /  18.1 °C 29.93in /  1013.4hPa NNW 1mph /  1.6km/h 2mph /  3.2km/h 89% 0.00in /  0mm 0 W/m2
04:00 68 °F /  20 °C 64.6 °F /  18.1 °C 29.93in /  1013.4hPa Calm   2mph /  3.2km/h 89% 0.00in /  0mm 0 W/m2
04:10 67.6 °F /  19.8 °C 64.3 °F /  17.9 °C 29.93in /  1013.4hPa Calm   2mph /  3.2km/h 89% 0.00in /  0mm 0 W/m2
04:20 67.5 °F /  19.7 °C 64.1 °F /  17.8 °C 29.93in /  1013.4hPa Calm   2mph /  3.2km/h 89% 0.00in /  0mm 0 W/m2
04:30 67.3 °F /  19.6 °C 64.2 °F /  17.9 °C 29.93in /  1013.4hPa NW 1mph /  1.6km/h 2mph /  3.2km/h 90% 0.00in /  0mm 0 W/m2
04:40 67.3 °F /  19.6 °C 64.2 °F /  17.9 °C 29.94in /  1013.8hPa Calm   2mph /  3.2km/h 90% 0.00in /  0mm 0 W/m2
04:50 66.7 °F /  19.3 °C 63.7 °F /  17.6 °C 29.94in /  1013.8hPa West 1mph /  1.6km/h 3mph /  4.8km/h 90% 0.00in /  0mm 0 W/m2
05:00 66.4 °F /  19.1 °C 63.4 °F /  17.4 °C 29.94in /  1013.8hPa WSW 2mph /  3.2km/h 2mph /  3.2km/h 90% 0.00in /  0mm 0 W/m2
05:10 66 °F /  18.9 °C 63.3 °F /  17.4 °C 29.94in /  1013.8hPa West 1mph /  1.6km/h 2mph /  3.2km/h 91% 0.00in /  0mm 0 W/m2
05:20 65.8 °F /  18.8 °C 63.1 °F /  17.3 °C 29.94in /  1013.8hPa Calm   2mph /  3.2km/h 91% 0.00in /  0mm 3 W/m2
05:30 65.8 °F /  18.8 °C 63.1 °F /  17.3 °C 29.94in /  1013.8hPa NW 1mph /  1.6km/h 2mph /  3.2km/h 91% 0.00in /  0mm 8 W/m2
05:40 66 °F /  18.9 °C 63.3 °F /  17.4 °C 29.95in /  1014.1hPa WNW 2mph /  3.2km/h 3mph /  4.8km/h 91% 0.00in /  0mm 16 W/m2
05:50 66 °F /  18.9 °C 63.9 °F /  17.7 °C 29.95in /  1014.1hPa Calm   3mph /  4.8km/h 93% 0.00in /  0mm 26 W/m2
06:00 66.2 °F /  19 °C 63.5 °F /  17.5 °C 29.95in /  1014.1hPa Calm   2mph /  3.2km/h 91% 0.00in /  0mm 37 W/m2
06:10 66.2 °F /  19 °C 63.5 °F /  17.5 °C 29.96in /  1014.4hPa NNE 2mph /  3.2km/h 4mph /  6.4km/h 91% 0.00in /  0mm 53 W/m2
06:20 66.1 °F /  18.9 °C 63.4 °F /  17.4 °C 29.96in /  1014.4hPa Calm   2mph /  3.2km/h 91% 0.00in /  0mm 71 W/m2
06:30 66 °F /  18.9 °C 63.3 °F /  17.4 °C 29.96in /  1014.4hPa Calm   2mph /  3.2km/h 91% 0.00in /  0mm 93 W/m2
06:40 66 °F /  18.9 °C 63.3 °F /  17.4 °C 29.96in /  1014.4hPa Calm   2mph /  3.2km/h 91% 0.00in /  0mm 116 W/m2
06:50 66.3 °F /  19.1 °C 63.6 °F /  17.6 °C 29.97in /  1014.8hPa Calm   2mph /  3.2km/h 91% 0.00in /  0mm 142 W/m2
07:00 66.4 °F /  19.1 °C 63.7 °F /  17.6 °C 29.97in /  1014.8hPa Calm   1mph /  1.6km/h 91% 0.00in /  0mm 168 W/m2
07:10 66.9 °F /  19.4 °C 64.2 °F /  17.9 °C 29.96in /  1014.4hPa WSW 1mph /  1.6km/h 2mph /  3.2km/h 91% 0.00in /  0mm 194 W/m2
07:20 67.4 °F /  19.7 °C 65 °F /  18.3 °C 29.96in /  1014.4hPa Calm   2mph /  3.2km/h 92% 0.00in /  0mm 228 W/m2
07:30 67.9 °F /  19.9 °C 65.8 °F /  18.8 °C 29.96in /  1014.4hPa Calm   2mph /  3.2km/h 93% 0.00in /  0mm 264 W/m2
07:40 68.4 °F /  20.2 °C 65.7 °F /  18.7 °C 29.96in /  1014.4hPa NNW 1mph /  1.6km/h 3mph /  4.8km/h 91% 0.00in /  0mm 301 W/m2
07:50 69.1 °F /  20.6 °C 66 °F /  18.9 °C 29.96in /  1014.4hPa Calm   3mph /  4.8km/h 90% 0.00in /  0mm 331 W/m2
08:00 69.7 °F /  20.9 °C 66.6 °F /  19.2 °C 29.96in /  1014.4hPa Calm   2mph /  3.2km/h 90% 0.00in /  0mm 361 W/m2
08:10 70.4 °F /  21.3 °C 67 °F /  19.4 °C 29.96in /  1014.4hPa Calm   2mph /  3.2km/h 89% 0.00in /  0mm 397 W/m2
08:20 71.2 °F /  21.8 °C 67.8 °F /  19.9 °C 29.96in /  1014.4hPa WSW 1mph /  1.6km/h 2mph /  3.2km/h 89% 0.00in /  0mm 431 W/m2
08:30 72 °F /  22.2 °C 67.6 °F /  19.8 °C 29.96in /  1014.4hPa Calm   2mph /  3.2km/h 86% 0.00in /  0mm 465 W/m2
08:40 73 °F /  22.8 °C 68.3 °F /  20.2 °C 29.96in /  1014.4hPa WSW 2mph /  3.2km/h 4mph /  6.4km/h 85% 0.00in /  0mm 496 W/m2
08:50 73.8 °F /  23.2 °C 68.3 °F /  20.2 °C 29.96in /  1014.4hPa West 1mph /  1.6km/h 3mph /  4.8km/h 83% 0.00in /  0mm 530 W/m2
09:00 75.1 °F /  23.9 °C 68.9 °F /  20.5 °C 29.95in /  1014.1hPa West 1mph /  1.6km/h 4mph /  6.4km/h 81% 0.00in /  0mm 560 W/m2
09:10 77 °F /  25 °C 69.9 °F /  21.1 °C 29.95in /  1014.1hPa WSW 1mph /  1.6km/h 3mph /  4.8km/h 79% 0.00in /  0mm 595 W/m2
09:20 78.7 °F /  25.9 °C 70.9 °F /  21.6 °C 29.95in /  1014.1hPa Calm   3mph /  4.8km/h 77% 0.00in /  0mm 625 W/m2
09:30 80.2 °F /  26.8 °C 71.2 °F /  21.8 °C 29.95in /  1014.1hPa West 1mph /  1.6km/h 4mph /  6.4km/h 74% 0.00in /  0mm 657 W/m2
09:40 81.4 °F /  27.4 °C 71.9 °F /  22.2 °C 29.95in /  1014.1hPa WSW 2mph /  3.2km/h 3mph /  4.8km/h 73% 0.00in /  0mm 689 W/m2
09:50 82.6 °F /  28.1 °C 72.6 °F /  22.6 °C 29.95in /  1014.1hPa NW 1mph /  1.6km/h 4mph /  6.4km/h 72% 0.00in /  0mm 714 W/m2
10:00 83.6 °F /  28.7 °C 71.9 °F /  22.2 °C 29.94in /  1013.8hPa SW 1mph /  1.6km/h 2mph /  3.2km/h 68% 0.00in /  0mm 743 W/m2
10:10 84.8 °F /  29.3 °C 73.1 °F /  22.8 °C 29.94in /  1013.8hPa SSW 2mph /  3.2km/h 5mph /  8km/h 68% 0.00in /  0mm 769 W/m2
10:20 85.9 °F /  29.9 °C 72.3 °F /  22.4 °C 29.94in /  1013.8hPa East 1mph /  1.6km/h 5mph /  8km/h 64% 0.00in /  0mm 793 W/m2
10:30 86.4 °F /  30.2 °C 72.3 °F /  22.4 °C 29.94in /  1013.8hPa WNW 2mph /  3.2km/h 3mph /  4.8km/h 63% 0.00in /  0mm 809 W/m2
10:40 87.3 °F /  30.7 °C 72.7 °F /  22.6 °C 29.94in /  1013.8hPa SSW 2mph /  3.2km/h 3mph /  4.8km/h 62% 0.00in /  0mm 834 W/m2
10:50 88.2 °F /  31.2 °C 72.6 °F /  22.6 °C 29.94in /  1013.8hPa WSW 1mph /  1.6km/h 4mph /  6.4km/h 60% 0.00in /  0mm 217 W/m2
11:00 88.8 °F /  31.6 °C 73.1 °F /  22.8 °C 29.93in /  1013.4hPa NNE 2mph /  3.2km/h 5mph /  8km/h 60% 0.00in /  0mm 850 W/m2
11:10 89.3 °F /  31.8 °C 73.1 °F /  22.8 °C 29.93in /  1013.4hPa WNW 1mph /  1.6km/h 5mph /  8km/h 59% 0.00in /  0mm 837 W/m2
11:20 90.1 °F /  32.3 °C 72.8 °F /  22.7 °C 29.93in /  1013.4hPa West 2mph /  3.2km/h 5mph /  8km/h 57% 0.00in /  0mm 796 W/m2
11:30 90.5 °F /  32.5 °C 71 °F /  21.7 °C 29.93in /  1013.4hPa WNW 1mph /  1.6km/h 4mph /  6.4km/h 53% 0.00in /  0mm 904 W/m2
11:40 91.1 °F /  32.8 °C 72.7 °F /  22.6 °C 29.93in /  1013.4hPa NW 1mph /  1.6km/h 6mph /  9.7km/h 55% 0.00in /  0mm 913 W/m2
11:50 91.9 °F /  33.3 °C 74.5 °F /  23.6 °C 29.92in /  1013.1hPa North 1mph /  1.6km/h 5mph /  8km/h 57% 0.00in /  0mm 920 W/m2
12:00 92.8 °F /  33.8 °C 74.3 °F /  23.5 °C 29.92in /  1013.1hPa North 1mph /  1.6km/h 7mph /  11.3km/h 55% 0.00in /  0mm 927 W/m2
12:10 93.2 °F /  34 °C 73.5 °F /  23.1 °C 29.92in /  1013.1hPa WNW 2mph /  3.2km/h 6mph /  9.7km/h 53% 0.00in /  0mm 931 W/m2
12:20 93.2 °F /  34 °C 73.5 °F /  23.1 °C 29.91in /  1012.8hPa West 1mph /  1.6km/h 5mph /  8km/h 53% 0.00in /  0mm 934 W/m2
12:30 93.9 °F /  34.4 °C 73.6 °F /  23.1 °C 29.91in /  1012.8hPa NNW 2mph /  3.2km/h 5mph /  8km/h 52% 0.00in /  0mm 936 W/m2
12:40 94.5 °F /  34.7 °C 73.6 °F /  23.1 °C 29.91in /  1012.8hPa NNW 2mph /  3.2km/h 4mph /  6.4km/h 51% 0.00in /  0mm 936 W/m2
12:50 95.4 °F /  35.2 °C 73.2 °F /  22.9 °C 29.91in /  1012.8hPa East 1mph /  1.6km/h 5mph /  8km/h 49% 0.00in /  0mm 934 W/m2
13:00 95.9 °F /  35.5 °C 73.7 °F /  23.2 °C 29.91in /  1012.8hPa SSW 2mph /  3.2km/h 5mph /  8km/h 49% 0.00in /  0mm 931 W/m2
13:10 95.8 °F /  35.4 °C 73.6 °F /  23.1 °C 29.91in /  1012.8hPa South 3mph /  4.8km/h 9mph /  14.5km/h 49% 0.00in /  0mm 173 W/m2
13:20 94.8 °F /  34.9 °C 73.9 °F /  23.3 °C 29.90in /  1012.4hPa South 1mph /  1.6km/h 6mph /  9.7km/h 51% 0.00in /  0mm 202 W/m2
13:30 94.3 °F /  34.6 °C 74.5 °F /  23.6 °C 29.90in /  1012.4hPa SW 1mph /  1.6km/h 5mph /  8km/h 53% 0.00in /  0mm 262 W/m2
13:40 93.9 °F /  34.4 °C 74.7 °F /  23.7 °C 29.90in /  1012.4hPa WSW 2mph /  3.2km/h 6mph /  9.7km/h 54% 0.00in /  0mm 349 W/m2
13:50 94.1 °F /  34.5 °C 75.5 °F /  24.2 °C 29.90in /  1012.4hPa South 2mph /  3.2km/h 6mph /  9.7km/h 55% 0.00in /  0mm 372 W/m2
14:00 94.5 °F /  34.7 °C 74.7 °F /  23.7 °C 29.90in /  1012.4hPa SW 2mph /  3.2km/h 5mph /  8km/h 53% 0.00in /  0mm 880 W/m2
14:10 95.2 °F /  35.1 °C 73.6 °F /  23.1 °C 29.89in /  1012.1hPa WSW 5mph /  8km/h 11mph /  17.7km/h 50% 0.00in /  0mm 867 W/m2
14:20 95.7 °F /  35.4 °C 74.7 °F /  23.7 °C 29.89in /  1012.1hPa SW 3mph /  4.8km/h 8mph /  12.9km/h 51% 0.00in /  0mm 852 W/m2
14:30 96.1 °F /  35.6 °C 73.2 °F /  22.9 °C 29.89in /  1012.1hPa West 3mph /  4.8km/h 12mph /  19.3km/h 48% 0.00in /  0mm 836 W/m2
14:40 96.4 °F /  35.8 °C 73.5 °F /  23.1 °C 29.89in /  1012.1hPa West 6mph /  9.7km/h 10mph /  16.1km/h 48% 0.00in /  0mm 818 W/m2
14:50 96.6 °F /  35.9 °C 73.1 °F /  22.8 °C 29.89in /  1012.1hPa West 5mph /  8km/h 11mph /  17.7km/h 47% 0.00in /  0mm 799 W/m2
15:00 97 °F /  36.1 °C 70.8 °F /  21.6 °C 29.89in /  1012.1hPa West 7mph /  11.3km/h 13mph /  20.9km/h 43% 0.00in /  0mm 779 W/m2
15:10 97.2 °F /  36.2 °C 69.5 °F /  20.8 °C 29.89in /  1012.1hPa West 5mph /  8km/h 12mph /  19.3km/h 41% 0.00in /  0mm 757 W/m2
15:20 97.3 °F /  36.3 °C 69 °F /  20.6 °C 29.89in /  1012.1hPa WNW 7mph /  11.3km/h 11mph /  17.7km/h 40% 0.00in /  0mm 735 W/m2
15:30 97.5 °F /  36.4 °C 69.1 °F /  20.6 °C 29.89in /  1012.1hPa WNW 7mph /  11.3km/h 12mph /  19.3km/h 40% 0.00in /  0mm 711 W/m2
15:40 97.5 °F /  36.4 °C 69.9 °F /  21.1 °C 29.89in /  1012.1hPa WNW 6mph /  9.7km/h 11mph /  17.7km/h 41% 0.00in /  0mm 687 W/m2
15:50 97.8 °F /  36.6 °C 70.8 °F /  21.6 °C 29.89in /  1012.1hPa West 3mph /  4.8km/h 8mph /  12.9km/h 42% 0.00in /  0mm 661 W/m2
16:00 97.9 °F /  36.6 °C 69.5 °F /  20.8 °C 29.89in /  1012.1hPa WNW 5mph /  8km/h 11mph /  17.7km/h 40% 0.00in /  0mm 635 W/m2
16:10 98.1 °F /  36.7 °C 68.1 °F /  20.1 °C 29.89in /  1012.1hPa West 3mph /  4.8km/h 8mph /  12.9km/h 38% 0.00in /  0mm 607 W/m2
16:20 97.9 °F /  36.6 °C 67.2 °F /  19.6 °C 29.89in /  1012.1hPa West 5mph /  8km/h 9mph /  14.5km/h 37% 0.00in /  0mm 579 W/m2
16:30 97.9 °F /  36.6 °C 68 °F /  20 °C 29.89in /  1012.1hPa West 5mph /  8km/h 9mph /  14.5km/h 38% 0.00in /  0mm 551 W/m2
16:40 97.8 °F /  36.6 °C 68.6 °F /  20.3 °C 29.89in /  1012.1hPa West 5mph /  8km/h 9mph /  14.5km/h 39% 0.00in /  0mm 521 W/m2
16:50 97.9 °F /  36.6 °C 68 °F /  20 °C 29.89in /  1012.1hPa WSW 6mph /  9.7km/h 8mph /  12.9km/h 38% 0.00in /  0mm 491 W/m2
17:00 97.7 °F /  36.5 °C 70 °F /  21.1 °C 29.89in /  1012.1hPa WSW 5mph /  8km/h 9mph /  14.5km/h 41% 0.00in /  0mm 461 W/m2
17:10 97.5 °F /  36.4 °C 68.4 °F /  20.2 °C 29.88in /  1011.7hPa WSW 3mph /  4.8km/h 8mph /  12.9km/h 39% 0.00in /  0mm 427 W/m2
17:20 97.3 °F /  36.3 °C 68.2 °F /  20.1 °C 29.88in /  1011.7hPa WSW 5mph /  8km/h 10mph /  16.1km/h 39% 0.00in /  0mm 400 W/m2
17:30 97.2 °F /  36.2 °C 68.1 °F /  20.1 °C 29.88in /  1011.7hPa WSW 7mph /  11.3km/h 9mph /  14.5km/h 39% 0.00in /  0mm 359 W/m2
17:40 96.9 °F /  36.1 °C 67.8 °F /  19.9 °C 29.88in /  1011.7hPa West 6mph /  9.7km/h 8mph /  12.9km/h 39% 0.00in /  0mm 322 W/m2
17:50 96.8 °F /  36 °C 68.5 °F /  20.3 °C 29.88in /  1011.7hPa West 2mph /  3.2km/h 10mph /  16.1km/h 40% 0.00in /  0mm 293 W/m2
18:00 96.6 °F /  35.9 °C 68.3 °F /  20.2 °C 29.88in /  1011.7hPa West 5mph /  8km/h 8mph /  12.9km/h 40% 0.00in /  0mm 259 W/m2
18:10 96.3 °F /  35.7 °C 68.1 °F /  20.1 °C 29.88in /  1011.7hPa WSW 2mph /  3.2km/h 6mph /  9.7km/h 40% 0.00in /  0mm 224 W/m2
18:20 96.2 °F /  35.7 °C 69.3 °F /  20.7 °C 29.87in /  1011.4hPa WSW 2mph /  3.2km/h 5mph /  8km/h 42% 0.00in /  0mm 192 W/m2
18:30 95.9 °F /  35.5 °C 69.1 °F /  20.6 °C 29.88in /  1011.7hPa WSW 2mph /  3.2km/h 4mph /  6.4km/h 42% 0.00in /  0mm 162 W/m2
18:40 95.4 °F /  35.2 °C 69.3 °F /  20.7 °C 29.88in /  1011.7hPa West 2mph /  3.2km/h 6mph /  9.7km/h 43% 0.00in /  0mm 134 W/m2
18:50 94.9 °F /  34.9 °C 68.9 °F /  20.5 °C 29.88in /  1011.7hPa WNW 2mph /  3.2km/h 5mph /  8km/h 43% 0.00in /  0mm 107 W/m2
19:00 94.1 °F /  34.5 °C 71.4 °F /  21.9 °C 29.88in /  1011.7hPa Calm   3mph /  4.8km/h 48% 0.00in /  0mm 82 W/m2
19:10 92.7 °F /  33.7 °C 71.4 °F /  21.9 °C 29.88in /  1011.7hPa South 1mph /  1.6km/h 3mph /  4.8km/h 50% 0.00in /  0mm 58 W/m2
19:20 91.5 °F /  33.1 °C 71.4 °F /  21.9 °C 29.88in /  1011.7hPa SSW 2mph /  3.2km/h 3mph /  4.8km/h 52% 0.00in /  0mm 23 W/m2
19:30 90 °F /  32.2 °C 71.2 °F /  21.8 °C 29.89in /  1012.1hPa SE 2mph /  3.2km/h 5mph /  8km/h 54% 0.00in /  0mm 14 W/m2
19:40 88 °F /  31.1 °C 70.8 °F /  21.6 °C 29.89in /  1012.1hPa SSE 1mph /  1.6km/h 6mph /  9.7km/h 57% 0.00in /  0mm 9 W/m2
19:50 86.6 °F /  30.3 °C 70.1 °F /  21.2 °C 29.90in /  1012.4hPa SSW 1mph /  1.6km/h 6mph /  9.7km/h 58% 0.00in /  0mm 5 W/m2
20:00 85 °F /  29.4 °C 69.6 °F /  20.9 °C 29.90in /  1012.4hPa SSW 1mph /  1.6km/h 5mph /  8km/h 60% 0.00in /  0mm 0 W/m2
20:10 84.2 °F /  29 °C 69.8 °F /  21 °C 29.91in /  1012.8hPa SW 1mph /  1.6km/h 2mph /  3.2km/h 62% 0.00in /  0mm 0 W/m2
20:20 83.4 °F /  28.6 °C 69.5 °F /  20.8 °C 29.92in /  1013.1hPa SSW 2mph /  3.2km/h 3mph /  4.8km/h 63% 0.00in /  0mm 0 W/m2
20:30 82.3 °F /  27.9 °C 68.9 °F /  20.5 °C 29.92in /  1013.1hPa SW 1mph /  1.6km/h 2mph /  3.2km/h 64% 0.00in /  0mm 0 W/m2
20:40 81.6 °F /  27.6 °C 68.2 °F /  20.1 °C 29.93in /  1013.4hPa Calm   2mph /  3.2km/h 64% 0.00in /  0mm 0 W/m2
20:50 81.1 °F /  27.3 °C 67.8 °F /  19.9 °C 29.94in /  1013.8hPa West 1mph /  1.6km/h 2mph /  3.2km/h 64% 0.00in /  0mm 0 W/m2
21:00 79.8 °F /  26.6 °C 67 °F /  19.4 °C 29.97in /  1014.8hPa West 6mph /  9.7km/h 12mph /  19.3km/h 65% 0.00in /  0mm 0 W/m2
21:10 80.5 °F /  26.9 °C 65.4 °F /  18.6 °C 29.99in /  1015.5hPa NW 8mph /  12.9km/h 17mph /  27.4km/h 60% 0.00in /  0mm 0 W/m2
21:20 81.3 °F /  27.4 °C 66.1 °F /  18.9 °C 29.99in /  1015.5hPa WNW 14mph /  22.5km/h 26mph /  41.8km/h 60% 0.00in /  0mm 0 W/m2
21:30 80.8 °F /  27.1 °C 65.6 °F /  18.7 °C 30.00in /  1015.8hPa WNW 12mph /  19.3km/h 24mph /  38.6km/h 60% 0.00in /  0mm 0 W/m2
21:40 80.2 °F /  26.8 °C 64.1 °F /  17.8 °C 30.01in /  1016.1hPa WNW 8mph /  12.9km/h 24mph /  38.6km/h 58% 0.00in /  0mm 0 W/m2
21:50 80 °F /  26.7 °C 63.4 °F /  17.4 °C 30.02in /  1016.5hPa WNW 6mph /  9.7km/h 12mph /  19.3km/h 57% 0.00in /  0mm 0 W/m2
22:00 79.6 °F /  26.4 °C 63 °F /  17.2 °C 30.02in /  1016.5hPa WNW 5mph /  8km/h 21mph /  33.8km/h 57% 0.00in /  0mm 0 W/m2
22:10 79 °F /  26.1 °C 62.5 °F /  16.9 °C 30.02in /  1016.5hPa NW 12mph /  19.3km/h 19mph /  30.6km/h 57% 0.00in /  0mm 0 W/m2
22:20 78.3 °F /  25.7 °C 62.8 °F /  17.1 °C 30.03in /  1016.8hPa West 9mph /  14.5km/h 17mph /  27.4km/h 59% 0.00in /  0mm 0 W/m2
22:30 77.4 °F /  25.2 °C 62.4 °F /  16.9 °C 30.03in /  1016.8hPa West 10mph /  16.1km/h 23mph /  37km/h 60% 0.00in /  0mm 0 W/m2
22:40 76.8 °F /  24.9 °C 62.8 °F /  17.1 °C 30.04in /  1017.2hPa West 7mph /  11.3km/h 17mph /  27.4km/h 62% 0.00in /  0mm 0 W/m2
22:50 76.8 °F /  24.9 °C 61.9 °F /  16.6 °C 30.03in /  1016.8hPa West 5mph /  8km/h 13mph /  20.9km/h 60% 0.00in /  0mm 0 W/m2
23:00 76.5 °F /  24.7 °C 65.6 °F /  18.7 °C 30.03in /  1016.8hPa South 8mph /  12.9km/h 12mph /  19.3km/h 69% 0.00in /  0mm 0 W/m2
23:10 73.6 °F /  23.1 °C 64.5 °F /  18.1 °C 29.99in /  1015.5hPa SSE 12mph /  19.3km/h 22mph /  35.4km/h 73% 0.00in /  0mm 0 W/m2
23:20 72.7 °F /  22.6 °C 64 °F /  17.8 °C 29.99in /  1015.5hPa SW 5mph /  8km/h 22mph /  35.4km/h 74% 0.06in /  1.52mm 0 W/m2
23:30 73 °F /  22.8 °C 63 °F /  17.2 °C 29.97in /  1014.8hPa West 5mph /  8km/h 13mph /  20.9km/h 71% 0.00in /  0mm 0 W/m2
23:40 73.2 °F /  22.9 °C 64 °F /  17.8 °C 29.96in /  1014.4hPa East 5mph /  8km/h 12mph /  19.3km/h 73% 0.00in /  0mm 0 W/m2
23:50 73.5 °F /  23.1 °C 62.7 °F /  17.1 °C 29.95in /  1014.1hPa ESE 8mph /  12.9km/h 15mph /  24.1km/h 69% 0.00in /  0mm 0 W/m2
Knjazevac, Serbia
Compliments of Weather Underground - 2 mb